createdAt,value
2023-04-23T00:02:06.343Z,15.10
2023-04-23T00:04:37.985Z,39.85
2023-04-23T00:07:06.065Z,30.80
2023-04-23T00:09:34.818Z,31.17
2023-04-23T00:12:02.754Z,26.38
2023-04-23T00:14:31.528Z,20.00
2023-04-23T00:16:59.166Z,10.52
2023-04-23T00:19:26.714Z,10.68
2023-04-23T00:21:54.415Z,13.48
2023-04-23T00:24:22.075Z,8.63
2023-04-23T00:26:49.679Z,8.27
2023-04-23T00:29:17.373Z,6.68
2023-04-23T00:31:45.057Z,11.45
2023-04-23T00:34:12.814Z,5.97
2023-04-23T00:36:40.541Z,6.22
2023-04-23T00:39:08.242Z,6.82
2023-04-23T00:41:35.919Z,6.78
2023-04-23T00:44:04.004Z,7.88
2023-04-23T00:46:31.745Z,8.40
2023-04-23T00:49:00.578Z,9.30
2023-04-23T00:51:29.362Z,10.02
2023-04-23T00:53:57.064Z,10.23
2023-04-23T00:56:25.798Z,8.77
2023-04-23T00:58:53.722Z,6.90
2023-04-23T01:01:22.006Z,5.28
2023-04-23T01:03:51.350Z,6.68
2023-04-23T01:06:19.522Z,6.68
2023-04-23T01:08:47.878Z,6.65
2023-04-23T01:11:17.234Z,7.05
2023-04-23T01:13:44.901Z,5.30
2023-04-23T01:16:12.728Z,7.28
2023-04-23T01:18:41.250Z,5.40
2023-04-23T01:21:11.976Z,14.18
2023-04-23T01:23:40.119Z,5.72
2023-04-23T01:26:07.816Z,6.07
2023-04-23T01:28:37.676Z,8.00
2023-04-23T01:31:05.579Z,6.60
2023-04-23T01:33:33.999Z,7.10
2023-04-23T01:36:03.151Z,5.30
2023-04-23T01:38:33.056Z,9.43
2023-04-23T01:41:00.744Z,5.93
2023-04-23T01:43:28.920Z,4.93
2023-04-23T01:45:57.454Z,4.18
2023-04-23T01:48:25.882Z,7.68
2023-04-23T01:50:54.288Z,5.40
2023-04-23T01:53:21.889Z,5.50
2023-04-23T01:55:52.464Z,9.20
2023-04-23T01:58:20.196Z,14.50
2023-04-23T02:00:47.763Z,17.77
2023-04-23T02:03:15.953Z,17.30
2023-04-23T02:05:44.661Z,14.35
2023-04-23T02:08:12.512Z,14.23
2023-04-23T02:10:40.098Z,11.45
2023-04-23T02:13:07.878Z,10.60
2023-04-23T02:15:35.556Z,8.75
2023-04-23T02:18:03.414Z,7.47
2023-04-23T02:20:31.197Z,6.43
2023-04-23T02:22:59.029Z,6.22
2023-04-23T02:25:26.607Z,7.47
2023-04-23T02:27:54.204Z,5.15
2023-04-23T02:30:23.283Z,6.00
2023-04-23T02:32:51.589Z,7.38
2023-04-23T02:35:19.353Z,6.15
2023-04-23T02:37:46.918Z,8.68
2023-04-23T02:40:14.571Z,20.17
2023-04-23T02:42:43.960Z,5.43
2023-04-23T02:45:11.992Z,5.72
2023-04-23T02:47:39.789Z,8.60
2023-04-23T02:50:08.647Z,5.70
2023-04-23T02:52:36.747Z,7.45
2023-04-23T02:55:05.489Z,5.85
2023-04-23T02:57:33.358Z,3.92
2023-04-23T03:00:01.173Z,5.75
2023-04-23T03:02:35.958Z,5.68
2023-04-23T03:05:05.441Z,6.53
2023-04-23T03:07:33.456Z,5.05
2023-04-23T03:10:01.249Z,5.53
2023-04-23T03:12:29.308Z,10.45
2023-04-23T03:14:57.725Z,6.80
2023-04-23T03:17:27.574Z,5.53
2023-04-23T03:19:56.176Z,7.40
2023-04-23T03:22:24.485Z,10.18
2023-04-23T03:24:52.156Z,10.55
2023-04-23T03:27:21.132Z,5.75
2023-04-23T03:29:49.325Z,6.43
2023-04-23T03:32:17.093Z,6.55
2023-04-23T03:34:46.138Z,7.22
2023-04-23T03:37:14.101Z,5.28
2023-04-23T03:39:42.545Z,6.60
2023-04-23T03:42:12.149Z,7.15
2023-04-23T03:44:41.115Z,4.65
2023-04-23T03:47:09.125Z,8.00
2023-04-23T03:49:38.229Z,5.82
2023-04-23T03:52:06.523Z,4.15
2023-04-23T03:54:37.673Z,6.75
2023-04-23T03:59:50.918Z,4.25
2023-04-23T04:02:19.314Z,7.00
2023-04-23T04:04:49.810Z,6.75
2023-04-23T04:07:18.412Z,5.72
2023-04-23T04:09:47.211Z,5.32
2023-04-23T04:12:16.323Z,5.28
2023-04-23T04:14:44.372Z,7.47
2023-04-23T04:17:12.624Z,9.23
2023-04-23T04:19:40.147Z,7.18
2023-04-23T04:22:07.820Z,7.28
2023-04-23T04:24:35.642Z,5.35
2023-04-23T04:27:03.599Z,3.78
2023-04-23T04:29:32.142Z,5.45
2023-04-23T04:32:00.507Z,6.30
2023-04-23T04:34:28.348Z,6.47
2023-04-23T04:36:55.921Z,4.53
2023-04-23T04:39:23.436Z,6.90
2023-04-23T04:41:51.109Z,14.38
2023-04-23T04:44:18.930Z,7.32
2023-04-23T04:46:46.545Z,7.10
2023-04-23T04:49:14.241Z,7.25
2023-04-23T04:51:41.841Z,9.00
2023-04-23T04:54:09.409Z,9.85
2023-04-23T04:56:37.146Z,10.63
2023-04-23T04:59:04.844Z,9.30
2023-04-23T05:01:33.488Z,19.00
2023-04-23T05:04:01.322Z,8.80
2023-04-23T05:06:29.156Z,6.88
2023-04-23T05:08:57.092Z,11.48
2023-04-23T05:11:24.664Z,10.07
2023-04-23T05:13:52.432Z,12.70
2023-04-23T05:16:20.158Z,11.65
2023-04-23T05:18:47.810Z,13.93
2023-04-23T05:21:16.022Z,19.40
2023-04-23T05:23:43.602Z,15.05
2023-04-23T05:26:11.442Z,19.95
2023-04-23T05:28:39.139Z,14.68
2023-04-23T05:31:06.710Z,10.20
2023-04-23T05:33:46.305Z,10.95
2023-04-23T05:36:17.402Z,12.93
2023-04-23T05:38:45.073Z,9.25
2023-04-23T05:41:12.802Z,9.38
2023-04-23T05:43:40.518Z,10.27
2023-04-23T05:46:08.387Z,10.40
2023-04-23T05:48:36.214Z,7.90
2023-04-23T05:51:03.958Z,9.88
2023-04-23T05:53:31.542Z,7.90
2023-04-23T05:55:59.178Z,7.28
2023-04-23T05:58:26.820Z,7.65
2023-04-23T06:00:54.866Z,8.07
2023-04-23T06:03:22.582Z,7.40
2023-04-23T06:05:50.364Z,7.32
2023-04-23T06:08:18.493Z,9.75
2023-04-23T06:10:46.605Z,7.78
2023-04-23T06:13:14.199Z,9.35
2023-04-23T06:15:41.813Z,9.40
2023-04-23T06:18:10.588Z,9.52
2023-04-23T06:20:38.198Z,17.80
2023-04-23T06:23:06.673Z,9.73
2023-04-23T06:25:34.350Z,9.52
2023-04-23T06:28:02.037Z,6.93
2023-04-23T06:30:34.923Z,10.57
2023-04-23T06:33:21.118Z,7.35
2023-04-23T06:35:48.760Z,7.80
2023-04-23T06:38:18.508Z,6.93
2023-04-23T06:40:46.451Z,8.75
2023-04-23T06:43:14.663Z,9.52
2023-04-23T06:46:08.200Z,26.02
2023-04-23T06:48:36.063Z,10.27
2023-04-23T06:51:03.698Z,7.85
2023-04-23T06:53:31.275Z,5.30
2023-04-23T06:55:58.801Z,8.50
2023-04-23T06:58:31.409Z,7.65
2023-04-23T07:01:04.462Z,8.90
2023-04-23T07:03:34.642Z,13.43
2023-04-23T07:06:02.506Z,13.45
2023-04-23T07:08:30.356Z,11.43
2023-04-23T07:10:58.618Z,7.72
2023-04-23T07:13:26.560Z,8.77
2023-04-23T07:15:54.106Z,6.82
2023-04-23T07:18:21.648Z,9.80
2023-04-23T07:20:49.222Z,6.78
2023-04-23T07:23:16.854Z,10.88
2023-04-23T07:25:44.403Z,10.82
2023-04-23T07:28:12.073Z,5.38
2023-04-23T07:30:39.814Z,6.60
2023-04-23T07:33:07.748Z,7.63
2023-04-23T07:35:35.370Z,6.22
2023-04-23T07:38:04.395Z,9.07
2023-04-23T07:40:32.132Z,8.60
2023-04-23T07:43:00.190Z,13.07
2023-04-23T07:45:27.877Z,7.53
2023-04-23T07:47:55.558Z,6.78
2023-04-23T07:50:23.237Z,5.90
2023-04-23T07:52:50.850Z,6.57
2023-04-23T07:55:20.390Z,6.78
2023-04-23T07:57:48.036Z,7.10
2023-04-23T08:00:16.064Z,11.10
2023-04-23T08:02:44.048Z,6.90
2023-04-23T08:05:11.877Z,9.20
2023-04-23T08:07:39.591Z,5.60
2023-04-23T08:10:07.936Z,6.22
2023-04-23T08:12:36.127Z,7.35
2023-04-23T08:15:04.657Z,6.38
2023-04-23T08:17:39.338Z,8.75
2023-04-23T08:20:07.815Z,5.13
2023-04-23T08:22:35.622Z,7.03
2023-04-23T08:25:04.800Z,9.52
2023-04-23T08:27:32.333Z,6.25
2023-04-23T08:29:59.945Z,5.70
2023-04-23T08:32:29.214Z,6.70
2023-04-23T08:34:56.942Z,7.18
2023-04-23T08:37:30.987Z,5.55
2023-04-23T08:39:59.278Z,7.55
2023-04-23T08:42:32.729Z,6.57
2023-04-23T08:45:01.434Z,8.60
2023-04-23T08:47:31.188Z,6.72
2023-04-23T08:50:00.029Z,6.50
2023-04-23T08:52:32.543Z,8.68
2023-04-23T08:55:07.444Z,5.43
2023-04-23T08:57:35.796Z,5.82
2023-04-23T09:00:06.619Z,6.22
2023-04-23T09:02:46.476Z,6.85
2023-04-23T09:05:15.118Z,4.85
2023-04-23T09:07:43.651Z,7.35
2023-04-23T09:10:12.850Z,7.10
2023-04-23T09:12:43.124Z,5.82
2023-04-23T09:15:11.374Z,5.95
2023-04-23T09:17:41.531Z,4.45
2023-04-23T09:20:09.929Z,5.45
2023-04-23T09:22:48.782Z,6.65
2023-04-23T09:25:21.656Z,4.95
2023-04-23T09:27:51.293Z,6.90
2023-04-23T09:30:20.038Z,6.38
2023-04-23T09:32:48.395Z,7.35
2023-04-23T09:35:19.660Z,7.03
2023-04-23T09:37:53.016Z,6.50
2023-04-23T09:40:23.973Z,6.93
2023-04-23T09:42:56.117Z,4.60
2023-04-23T09:45:26.766Z,3.45
2023-04-23T09:47:56.734Z,8.52
2023-04-23T09:50:39.173Z,9.43
2023-04-23T09:53:08.991Z,4.72
2023-04-23T09:55:43.178Z,7.00
2023-04-23T09:58:15.767Z,4.60
2023-04-23T10:00:43.620Z,4.13
2023-04-23T10:03:12.157Z,4.45
2023-04-23T10:08:14.447Z,5.30
2023-04-23T10:13:13.392Z,7.20
2023-04-23T10:15:41.036Z,3.97
2023-04-23T10:18:09.290Z,5.05
2023-04-23T10:20:37.892Z,4.63
2023-04-23T10:23:06.113Z,3.83
2023-04-23T10:25:35.025Z,5.07
2023-04-23T10:28:04.748Z,4.05
2023-04-23T10:30:33.586Z,3.58
2023-04-23T10:33:01.856Z,3.95
2023-04-23T10:35:29.940Z,4.95
2023-04-23T10:37:57.872Z,3.75
2023-04-23T10:40:32.343Z,4.72
2023-04-23T10:43:00.895Z,3.50
2023-04-23T10:45:32.932Z,4.60
2023-04-23T10:50:30.568Z,4.45
2023-04-23T10:52:58.823Z,4.70
2023-04-23T10:55:28.727Z,7.15
2023-04-23T10:58:04.440Z,3.85
2023-04-23T11:00:46.585Z,4.05
2023-04-23T11:06:39.418Z,4.60
2023-04-23T11:09:28.739Z,3.08
2023-04-23T11:11:57.983Z,5.07
2023-04-23T11:14:38.700Z,6.78
2023-04-23T11:17:09.025Z,7.32
2023-04-23T11:19:41.321Z,3.88
2023-04-23T11:22:20.595Z,5.13
2023-04-23T11:24:50.380Z,4.20
2023-04-23T11:27:19.866Z,4.30
2023-04-23T11:29:47.981Z,3.15
2023-04-23T11:32:17.615Z,3.35
2023-04-23T11:34:47.554Z,5.10
2023-04-23T11:37:15.995Z,4.30
2023-04-23T11:39:45.568Z,4.97
2023-04-23T11:42:14.549Z,3.20
2023-04-23T11:44:43.755Z,2.47
2023-04-23T11:47:13.455Z,3.70
2023-04-23T11:49:43.606Z,10.48
2023-04-23T11:52:12.816Z,7.03
2023-04-23T11:54:41.791Z,3.00
2023-04-23T11:57:10.454Z,3.22
2023-04-23T11:59:38.296Z,3.90
2023-04-23T12:02:06.245Z,2.95
2023-04-23T12:04:34.103Z,2.38
2023-04-23T12:07:04.323Z,5.07
2023-04-23T12:09:38.379Z,4.97
2023-04-23T12:12:06.300Z,4.15
2023-04-23T12:14:34.073Z,2.30
2023-04-23T12:17:10.474Z,5.07
2023-04-23T12:19:38.556Z,4.00
2023-04-23T12:22:08.573Z,4.45
2023-04-23T12:24:54.514Z,3.20
2023-04-23T12:27:24.536Z,2.50
2023-04-23T12:30:02.243Z,2.85
2023-04-23T12:32:34.183Z,2.65
2023-04-23T12:35:06.405Z,1.90
2023-04-23T12:37:37.750Z,3.53
2023-04-23T12:40:07.338Z,4.40
2023-04-23T12:42:35.719Z,3.92
2023-04-23T12:45:08.664Z,6.80
2023-04-23T12:47:36.249Z,4.97
2023-04-23T12:50:05.774Z,4.03
2023-04-23T12:52:33.557Z,5.75
2023-04-23T12:55:01.487Z,3.08
2023-04-23T12:57:29.169Z,2.88
2023-04-23T12:59:56.797Z,2.72
2023-04-23T13:02:25.970Z,2.78
2023-04-23T13:04:59.590Z,3.53
2023-04-23T13:07:27.214Z,5.57
2023-04-23T13:09:54.897Z,5.53
2023-04-23T13:12:22.622Z,6.80
2023-04-23T13:14:50.198Z,6.15
2023-04-23T13:17:17.844Z,3.05
2023-04-23T13:19:45.408Z,3.38
2023-04-23T13:22:13.080Z,5.70
2023-04-23T13:24:40.728Z,3.47
2023-04-23T13:27:08.387Z,7.85
2023-04-23T13:29:36.068Z,2.47
2023-04-23T13:32:03.965Z,7.82
2023-04-23T13:34:31.822Z,2.97
2023-04-23T13:37:00.409Z,5.72
2023-04-23T13:39:27.992Z,3.65
2023-04-23T13:42:08.846Z,3.83
2023-04-23T13:47:05.280Z,4.18
2023-04-23T13:49:32.906Z,4.07
2023-04-23T13:52:04.468Z,4.38
2023-04-23T13:54:32.366Z,3.00
2023-04-23T13:57:01.046Z,2.75
2023-04-23T13:59:28.722Z,3.42
2023-04-23T14:01:56.368Z,2.97
2023-04-23T14:04:24.309Z,4.22
2023-04-23T14:06:52.185Z,3.17
2023-04-23T14:09:19.830Z,4.20
2023-04-23T14:11:47.481Z,4.43
2023-04-23T14:14:15.397Z,2.92
2023-04-23T14:16:42.952Z,3.53
2023-04-23T14:19:10.627Z,2.83
2023-04-23T14:21:38.430Z,2.72
2023-04-23T14:24:10.118Z,5.05
2023-04-23T14:26:48.100Z,2.58
2023-04-23T14:29:37.852Z,4.30
2023-04-23T14:32:06.631Z,3.42
2023-04-23T14:34:37.024Z,3.08
2023-04-23T14:37:04.776Z,2.30
2023-04-23T14:39:34.282Z,4.30
2023-04-23T14:42:02.878Z,3.67
2023-04-23T14:44:31.035Z,4.80
2023-04-23T14:46:59.395Z,3.05
2023-04-23T14:49:27.048Z,3.40
2023-04-23T14:51:54.794Z,8.10
2023-04-23T14:54:22.949Z,13.55
2023-04-23T14:56:53.560Z,16.48
2023-04-23T14:59:22.106Z,10.38
2023-04-23T15:01:50.031Z,6.18
2023-04-23T15:04:18.061Z,2.53
2023-04-23T15:06:46.557Z,3.10
2023-04-23T15:09:14.142Z,3.47
2023-04-23T15:11:43.367Z,4.50
2023-04-23T15:14:32.674Z,16.35
2023-04-23T15:17:01.073Z,13.55
2023-04-23T15:19:31.182Z,12.93
2023-04-23T15:21:58.999Z,53.38
2023-04-23T15:24:26.661Z,22.48
2023-04-23T15:26:55.113Z,20.38
2023-04-23T15:29:24.588Z,8.50
2023-04-23T15:31:58.064Z,6.40
2023-04-23T15:34:26.411Z,3.10
2023-04-23T15:36:54.202Z,7.45
2023-04-23T15:39:22.037Z,3.67
2023-04-23T15:41:52.061Z,5.00
2023-04-23T15:44:19.948Z,3.10
2023-04-23T15:46:47.777Z,3.90
2023-04-23T15:49:15.476Z,3.80
2023-04-23T15:51:43.330Z,7.25
2023-04-23T15:54:11.035Z,4.70
2023-04-23T15:56:38.850Z,5.28
2023-04-23T15:59:07.018Z,4.15
2023-04-23T16:01:36.123Z,3.53
2023-04-23T16:06:34.544Z,10.95
2023-04-23T16:09:03.730Z,12.68
2023-04-23T16:11:31.371Z,13.05
2023-04-23T16:13:59.246Z,9.60
2023-04-23T16:16:27.154Z,7.22
2023-04-23T16:18:56.402Z,6.35
2023-04-23T16:21:25.684Z,6.68
2023-04-23T16:23:53.201Z,4.47
2023-04-23T16:26:20.958Z,3.92
2023-04-23T16:28:56.365Z,4.93
2023-04-23T16:31:33.292Z,4.93
2023-04-23T16:34:01.254Z,5.63
2023-04-23T16:36:29.174Z,12.15
2023-04-23T16:38:57.731Z,5.53
2023-04-23T16:41:25.322Z,10.65
2023-04-23T16:43:53.391Z,17.92
2023-04-23T16:46:24.010Z,14.45
2023-04-23T16:48:52.667Z,17.30
2023-04-23T16:51:20.282Z,10.40
2023-04-23T16:53:48.146Z,16.40
2023-04-23T16:56:16.056Z,24.08
2023-04-23T16:58:45.027Z,10.68
2023-04-23T17:01:12.693Z,12.57
2023-04-23T17:03:40.758Z,7.15
2023-04-23T17:06:19.741Z,8.13
2023-04-23T17:08:47.504Z,18.85
2023-04-23T17:11:17.124Z,18.13
2023-04-23T17:13:47.014Z,10.18
2023-04-23T17:16:15.236Z,23.45
2023-04-23T17:18:43.191Z,23.75
2023-04-23T17:21:11.697Z,10.95
2023-04-23T17:23:39.577Z,8.98
2023-04-23T17:26:07.676Z,5.28
2023-04-23T17:28:35.723Z,6.38
2023-04-23T17:31:04.879Z,11.23
2023-04-23T17:33:33.880Z,9.52
2023-04-23T17:36:02.616Z,10.73
2023-04-23T17:38:30.865Z,8.38
2023-04-23T17:40:59.924Z,7.90
2023-04-23T17:43:28.235Z,6.95
2023-04-23T17:45:56.483Z,16.45
2023-04-23T17:48:26.674Z,21.40
2023-04-23T17:50:55.221Z,17.02
2023-04-23T17:53:23.973Z,19.42
2023-04-23T17:56:01.385Z,40.53
2023-04-23T17:58:30.840Z,19.20
2023-04-23T18:01:00.663Z,28.08
2023-04-23T18:03:30.838Z,14.50
2023-04-23T18:05:59.789Z,24.50
2023-04-23T18:08:28.309Z,14.68
2023-04-23T18:10:56.579Z,19.10
2023-04-23T18:13:24.895Z,17.42
2023-04-23T18:15:52.962Z,28.45
2023-04-23T18:18:22.190Z,16.77
2023-04-23T18:20:52.454Z,9.63
2023-04-23T18:23:23.140Z,9.85
2023-04-23T18:25:51.368Z,18.10
2023-04-23T18:28:20.846Z,17.20
2023-04-23T18:30:49.282Z,25.83
2023-04-23T18:33:51.532Z,22.38
2023-04-23T18:36:32.528Z,21.80
2023-04-23T18:39:02.203Z,16.77
2023-04-23T18:41:31.436Z,37.42
2023-04-23T18:44:00.495Z,28.08
2023-04-23T18:46:30.469Z,24.55
2023-04-23T18:49:23.577Z,15.13
2023-04-23T18:51:52.676Z,14.88
2023-04-23T18:54:21.459Z,11.13
2023-04-23T18:56:51.380Z,5.78
2023-04-23T18:59:20.452Z,7.38
2023-04-23T19:01:49.230Z,7.15
2023-04-23T19:04:17.139Z,5.90
2023-04-23T19:06:45.606Z,6.35
2023-04-23T19:09:14.064Z,6.97
2023-04-23T19:11:42.470Z,5.25
2023-04-23T19:14:10.832Z,4.68
2023-04-23T19:16:39.447Z,5.93
2023-04-23T19:19:07.651Z,5.40
2023-04-23T19:21:36.387Z,8.50
2023-04-23T19:24:05.012Z,7.60
2023-04-23T19:26:33.560Z,9.50
2023-04-23T19:29:03.168Z,8.75
2023-04-23T19:31:34.508Z,11.07
2023-04-23T19:34:02.741Z,8.95
2023-04-23T19:36:31.530Z,8.50
2023-04-23T19:38:59.417Z,9.45
2023-04-23T19:41:27.976Z,8.23
2023-04-23T19:43:57.849Z,8.65
2023-04-23T19:46:26.552Z,11.85
2023-04-23T19:48:56.134Z,38.90
2023-04-23T19:51:29.417Z,32.85
2023-04-23T19:53:58.561Z,18.08
2023-04-23T19:56:26.445Z,16.02
2023-04-23T19:58:54.535Z,14.20
2023-04-23T20:01:22.960Z,15.13
2023-04-23T20:03:53.816Z,10.73
2023-04-23T20:06:22.098Z,9.40
2023-04-23T20:09:07.880Z,6.75
2023-04-23T20:11:36.517Z,6.80
2023-04-23T20:14:04.574Z,7.28
2023-04-23T20:16:32.976Z,7.45
2023-04-23T20:19:01.955Z,7.10
2023-04-23T20:21:29.961Z,6.03
2023-04-23T20:23:57.924Z,10.60
2023-04-23T20:26:25.853Z,9.82
2023-04-23T20:28:53.562Z,4.72
2023-04-23T20:31:21.476Z,7.93
2023-04-23T20:33:49.027Z,6.75
2023-04-23T20:36:17.431Z,7.10
2023-04-23T20:38:45.200Z,5.70
2023-04-23T20:41:14.468Z,5.78
2023-04-23T20:43:43.687Z,4.18
2023-04-23T20:46:11.630Z,4.88
2023-04-23T20:48:39.353Z,6.28
2023-04-23T20:51:07.918Z,6.25
2023-04-23T20:53:35.919Z,10.75
2023-04-23T20:56:03.902Z,14.15
2023-04-23T20:58:31.590Z,21.77
2023-04-23T21:00:59.614Z,27.35
2023-04-23T21:03:27.687Z,42.85
2023-04-23T21:05:56.086Z,61.25
2023-04-23T21:08:23.715Z,42.75
2023-04-23T21:10:51.592Z,36.20
2023-04-23T21:13:19.186Z,26.40
2023-04-23T21:15:47.923Z,26.55
2023-04-23T21:18:15.882Z,18.67
2023-04-23T21:20:44.077Z,12.23
2023-04-23T21:23:12.158Z,21.25
2023-04-23T21:25:40.122Z,18.10
2023-04-23T21:28:07.872Z,19.05
2023-04-23T21:30:51.194Z,20.13
2023-04-23T21:33:21.266Z,14.75
2023-04-23T21:35:50.871Z,15.25
2023-04-23T21:38:19.682Z,10.73
2023-04-23T21:40:47.376Z,6.85
2023-04-23T21:43:15.052Z,8.57
2023-04-23T21:45:42.739Z,7.25
2023-04-23T21:48:10.437Z,7.45
2023-04-23T21:50:38.063Z,7.65
2023-04-23T21:53:07.053Z,5.40
2023-04-23T21:55:34.666Z,7.05
2023-04-23T21:58:16.489Z,8.48
2023-04-23T22:03:16.320Z,6.22
2023-04-23T22:05:54.892Z,5.72
2023-04-23T22:08:23.424Z,7.65
2023-04-23T22:10:51.395Z,14.07
2023-04-23T22:13:20.343Z,11.98
2023-04-23T22:15:49.275Z,9.30
2023-04-23T22:18:18.062Z,5.35
2023-04-23T22:20:49.564Z,8.68
2023-04-23T22:23:17.441Z,9.20
2023-04-23T22:25:45.349Z,4.70
2023-04-23T22:28:13.051Z,11.35
2023-04-23T22:30:40.775Z,4.22
2023-04-23T22:33:08.640Z,5.55
2023-04-23T22:35:36.256Z,9.00
2023-04-23T22:38:03.976Z,9.60
2023-04-23T22:40:31.698Z,11.60
2023-04-23T22:42:59.320Z,11.98
2023-04-23T22:45:27.013Z,7.38
2023-04-23T22:47:55.072Z,5.40
2023-04-23T22:50:22.905Z,5.15
2023-04-23T22:52:50.965Z,8.35
2023-04-23T22:55:18.562Z,6.47
2023-04-23T22:57:46.119Z,5.80
2023-04-23T23:00:14.714Z,7.40
2023-04-23T23:02:42.306Z,4.20
2023-04-23T23:05:10.335Z,6.93
2023-04-23T23:07:38.671Z,7.40
2023-04-23T23:10:08.843Z,3.95
2023-04-23T23:12:37.230Z,5.43
2023-04-23T23:15:06.741Z,5.25
2023-04-23T23:17:34.389Z,8.43
2023-04-23T23:20:02.074Z,5.50
2023-04-23T23:22:29.953Z,6.25
2023-04-23T23:24:57.743Z,11.52
2023-04-23T23:27:25.989Z,14.23
2023-04-23T23:29:53.774Z,9.52
2023-04-23T23:32:21.397Z,7.97
2023-04-23T23:34:49.085Z,8.82
2023-04-23T23:37:16.657Z,6.38
2023-04-23T23:39:44.452Z,6.78
2023-04-23T23:42:12.364Z,7.40
2023-04-23T23:44:40.363Z,16.20
2023-04-23T23:47:08.129Z,14.55
2023-04-23T23:49:35.801Z,15.20
2023-04-23T23:52:04.003Z,9.43
2023-04-23T23:54:31.719Z,8.18
2023-04-23T23:56:59.897Z,7.70
2023-04-23T23:59:27.558Z,7.68
